sensor_id;sensor_type;location;lat;lon;timestamp;P1;durP1;ratioP1;P2;durP2;ratioP2
54599;SDS011;40500;51.084;16.958;2023-11-19T00:00:37;28.90;;;15.30;;
54599;SDS011;40500;51.084;16.958;2023-11-19T00:03:29;24.30;;;13.60;;
54599;SDS011;40500;51.084;16.958;2023-11-19T00:06:02;25.30;;;14.80;;
54599;SDS011;40500;51.084;16.958;2023-11-19T00:08:35;27.00;;;14.70;;
54599;SDS011;40500;51.084;16.958;2023-11-19T00:11:07;25.20;;;14.50;;
54599;SDS011;40500;51.084;16.958;2023-11-19T00:13:40;28.10;;;14.50;;
54599;SDS011;40500;51.084;16.958;2023-11-19T00:16:12;26.50;;;15.00;;
54599;SDS011;40500;51.084;16.958;2023-11-19T00:18:45;26.10;;;14.00;;
54599;SDS011;40500;51.084;16.958;2023-11-19T00:21:19;20.50;;;13.00;;
54599;SDS011;40500;51.084;16.958;2023-11-19T00:23:51;25.20;;;14.00;;
54599;SDS011;40500;51.084;16.958;2023-11-19T00:26:23;20.70;;;12.30;;
54599;SDS011;40500;51.084;16.958;2023-11-19T00:28:56;21.70;;;12.00;;
54599;SDS011;40500;51.084;16.958;2023-11-19T00:31:28;30.20;;;15.60;;
54599;SDS011;40500;51.084;16.958;2023-11-19T00:34:01;30.90;;;14.50;;
54599;SDS011;40500;51.084;16.958;2023-11-19T00:36:33;29.50;;;15.60;;
54599;SDS011;40500;51.084;16.958;2023-11-19T00:39:05;19.00;;;11.30;;
54599;SDS011;40500;51.084;16.958;2023-11-19T00:41:37;26.80;;;13.30;;
54599;SDS011;40500;51.084;16.958;2023-11-19T00:44:09;25.40;;;13.70;;
54599;SDS011;40500;51.084;16.958;2023-11-19T00:46:42;27.70;;;15.00;;
54599;SDS011;40500;51.084;16.958;2023-11-19T00:49:14;20.40;;;12.00;;
54599;SDS011;40500;51.084;16.958;2023-11-19T00:51:47;24.80;;;15.30;;
54599;SDS011;40500;51.084;16.958;2023-11-19T00:54:19;32.70;;;17.90;;
54599;SDS011;40500;51.084;16.958;2023-11-19T00:56:54;22.70;;;12.80;;
54599;SDS011;40500;51.084;16.958;2023-11-19T00:59:26;27.10;;;14.80;;
54599;SDS011;40500;51.084;16.958;2023-11-19T01:01:58;24.10;;;13.40;;
54599;SDS011;40500;51.084;16.958;2023-11-19T01:04:34;27.40;;;14.00;;
54599;SDS011;40500;51.084;16.958;2023-11-19T01:07:07;26.10;;;14.80;;
54599;SDS011;40500;51.084;16.958;2023-11-19T01:09:42;27.20;;;17.20;;
54599;SDS011;40500;51.084;16.958;2023-11-19T01:12:14;26.30;;;14.70;;
54599;SDS011;40500;51.084;16.958;2023-11-19T01:14:46;24.50;;;13.20;;
54599;SDS011;40500;51.084;16.958;2023-11-19T01:17:18;28.00;;;14.60;;
54599;SDS011;40500;51.084;16.958;2023-11-19T01:19:50;24.90;;;13.40;;
54599;SDS011;40500;51.084;16.958;2023-11-19T01:22:23;26.60;;;14.70;;
54599;SDS011;40500;51.084;16.958;2023-11-19T01:24:55;29.90;;;14.30;;
54599;SDS011;40500;51.084;16.958;2023-11-19T01:27:27;23.30;;;14.10;;
54599;SDS011;40500;51.084;16.958;2023-11-19T01:29:59;23.80;;;13.80;;
54599;SDS011;40500;51.084;16.958;2023-11-19T01:32:33;23.90;;;11.80;;
54599;SDS011;40500;51.084;16.958;2023-11-19T01:35:07;31.00;;;15.80;;
54599;SDS011;40500;51.084;16.958;2023-11-19T01:37:39;23.50;;;13.50;;
54599;SDS011;40500;51.084;16.958;2023-11-19T01:40:12;23.80;;;13.70;;
54599;SDS011;40500;51.084;16.958;2023-11-19T01:42:45;21.90;;;12.70;;
54599;SDS011;40500;51.084;16.958;2023-11-19T01:45:22;23.20;;;12.70;;
54599;SDS011;40500;51.084;16.958;2023-11-19T01:48:00;21.20;;;12.60;;
54599;SDS011;40500;51.084;16.958;2023-11-19T01:50:34;34.80;;;17.80;;
54599;SDS011;40500;51.084;16.958;2023-11-19T01:53:06;27.00;;;14.30;;
54599;SDS011;40500;51.084;16.958;2023-11-19T01:55:38;24.90;;;14.10;;
54599;SDS011;40500;51.084;16.958;2023-11-19T01:58:11;32.80;;;17.10;;
54599;SDS011;40500;51.084;16.958;2023-11-19T02:00:43;31.80;;;15.80;;
54599;SDS011;40500;51.084;16.958;2023-11-19T02:03:16;27.50;;;14.40;;
54599;SDS011;40500;51.084;16.958;2023-11-19T02:05:50;25.80;;;14.70;;
54599;SDS011;40500;51.084;16.958;2023-11-19T02:08:22;27.10;;;14.90;;
54599;SDS011;40500;51.084;16.958;2023-11-19T02:10:55;25.70;;;14.90;;
54599;SDS011;40500;51.084;16.958;2023-11-19T02:13:27;28.80;;;14.90;;
54599;SDS011;40500;51.084;16.958;2023-11-19T02:15:59;27.70;;;14.80;;
54599;SDS011;40500;51.084;16.958;2023-11-19T02:18:32;31.60;;;15.60;;
54599;SDS011;40500;51.084;16.958;2023-11-19T02:21:04;24.30;;;12.70;;
54599;SDS011;40500;51.084;16.958;2023-11-19T02:23:36;24.10;;;13.90;;
54599;SDS011;40500;51.084;16.958;2023-11-19T02:26:13;27.60;;;15.80;;
54599;SDS011;40500;51.084;16.958;2023-11-19T02:28:52;22.00;;;12.10;;
54599;SDS011;40500;51.084;16.958;2023-11-19T02:31:24;24.00;;;14.20;;
54599;SDS011;40500;51.084;16.958;2023-11-19T02:33:57;31.40;;;17.00;;
54599;SDS011;40500;51.084;16.958;2023-11-19T02:36:31;25.60;;;14.10;;
54599;SDS011;40500;51.084;16.958;2023-11-19T02:39:04;28.60;;;15.10;;
54599;SDS011;40500;51.084;16.958;2023-11-19T02:41:39;25.40;;;13.80;;
54599;SDS011;40500;51.084;16.958;2023-11-19T02:44:11;26.10;;;13.00;;
54599;SDS011;40500;51.084;16.958;2023-11-19T02:46:43;23.90;;;14.30;;
54599;SDS011;40500;51.084;16.958;2023-11-19T02:49:17;24.00;;;12.90;;
54599;SDS011;40500;51.084;16.958;2023-11-19T02:51:50;25.70;;;15.90;;
54599;SDS011;40500;51.084;16.958;2023-11-19T02:54:22;25.90;;;14.70;;
54599;SDS011;40500;51.084;16.958;2023-11-19T02:56:56;21.00;;;13.40;;
54599;SDS011;40500;51.084;16.958;2023-11-19T02:59:30;24.50;;;13.80;;
54599;SDS011;40500;51.084;16.958;2023-11-19T03:02:08;21.50;;;13.10;;
54599;SDS011;40500;51.084;16.958;2023-11-19T03:04:41;22.10;;;13.10;;
54599;SDS011;40500;51.084;16.958;2023-11-19T03:07:15;27.70;;;14.60;;
54599;SDS011;40500;51.084;16.958;2023-11-19T03:09:47;31.20;;;14.90;;
54599;SDS011;40500;51.084;16.958;2023-11-19T03:12:19;25.60;;;15.00;;
54599;SDS011;40500;51.084;16.958;2023-11-19T03:14:51;22.10;;;13.00;;
54599;SDS011;40500;51.084;16.958;2023-11-19T03:17:25;27.30;;;12.60;;
54599;SDS011;40500;51.084;16.958;2023-11-19T03:19:57;30.70;;;14.80;;
54599;SDS011;40500;51.084;16.958;2023-11-19T03:22:31;30.00;;;15.70;;
54599;SDS011;40500;51.084;16.958;2023-11-19T03:25:04;31.10;;;16.50;;
54599;SDS011;40500;51.084;16.958;2023-11-19T03:27:37;23.40;;;12.90;;
54599;SDS011;40500;51.084;16.958;2023-11-19T03:30:12;28.80;;;15.10;;
54599;SDS011;40500;51.084;16.958;2023-11-19T03:32:46;32.10;;;16.60;;
54599;SDS011;40500;51.084;16.958;2023-11-19T03:35:19;31.40;;;16.40;;
54599;SDS011;40500;51.084;16.958;2023-11-19T03:37:51;23.30;;;12.80;;
54599;SDS011;40500;51.084;16.958;2023-11-19T03:40:23;28.40;;;16.00;;
54599;SDS011;40500;51.084;16.958;2023-11-19T03:42:56;24.40;;;12.00;;
54599;SDS011;40500;51.084;16.958;2023-11-19T03:45:29;25.20;;;12.90;;
54599;SDS011;40500;51.084;16.958;2023-11-19T03:48:01;36.40;;;18.90;;
54599;SDS011;40500;51.084;16.958;2023-11-19T03:50:33;30.90;;;14.60;;
54599;SDS011;40500;51.084;16.958;2023-11-19T03:53:06;26.80;;;15.70;;
54599;SDS011;40500;51.084;16.958;2023-11-19T03:55:38;22.30;;;13.00;;
54599;SDS011;40500;51.084;16.958;2023-11-19T03:58:10;21.20;;;11.20;;
54599;SDS011;40500;51.084;16.958;2023-11-19T04:00:42;27.30;;;13.70;;
54599;SDS011;40500;51.084;16.958;2023-11-19T04:03:14;31.30;;;15.60;;
54599;SDS011;40500;51.084;16.958;2023-11-19T04:05:49;25.20;;;14.40;;
54599;SDS011;40500;51.084;16.958;2023-11-19T04:08:21;30.70;;;15.90;;
54599;SDS011;40500;51.084;16.958;2023-11-19T04:10:53;25.90;;;14.30;;
54599;SDS011;40500;51.084;16.958;2023-11-19T04:13:25;32.30;;;16.60;;
54599;SDS011;40500;51.084;16.958;2023-11-19T04:15:57;28.20;;;13.80;;
54599;SDS011;40500;51.084;16.958;2023-11-19T04:18:30;25.50;;;14.60;;
54599;SDS011;40500;51.084;16.958;2023-11-19T04:21:05;24.30;;;12.70;;
54599;SDS011;40500;51.084;16.958;2023-11-19T04:23:38;25.00;;;13.30;;
54599;SDS011;40500;51.084;16.958;2023-11-19T04:26:10;27.80;;;16.10;;
54599;SDS011;40500;51.084;16.958;2023-11-19T04:28:42;20.30;;;10.60;;
54599;SDS011;40500;51.084;16.958;2023-11-19T04:31:15;26.70;;;14.00;;
54599;SDS011;40500;51.084;16.958;2023-11-19T04:33:47;24.20;;;13.90;;
54599;SDS011;40500;51.084;16.958;2023-11-19T04:36:23;27.10;;;14.60;;
54599;SDS011;40500;51.084;16.958;2023-11-19T04:38:56;30.80;;;15.90;;
54599;SDS011;40500;51.084;16.958;2023-11-19T04:41:28;23.20;;;13.50;;
54599;SDS011;40500;51.084;16.958;2023-11-19T04:44:01;25.40;;;13.70;;
54599;SDS011;40500;51.084;16.958;2023-11-19T04:46:33;22.80;;;13.70;;
54599;SDS011;40500;51.084;16.958;2023-11-19T04:49:05;22.10;;;13.30;;
54599;SDS011;40500;51.084;16.958;2023-11-19T04:51:39;22.80;;;13.10;;
54599;SDS011;40500;51.084;16.958;2023-11-19T04:54:12;20.20;;;11.40;;
54599;SDS011;40500;51.084;16.958;2023-11-19T04:56:46;24.40;;;13.20;;
54599;SDS011;40500;51.084;16.958;2023-11-19T04:59:18;24.80;;;14.00;;
54599;SDS011;40500;51.084;16.958;2023-11-19T05:01:50;22.90;;;12.60;;
54599;SDS011;40500;51.084;16.958;2023-11-19T05:04:22;22.40;;;12.10;;
54599;SDS011;40500;51.084;16.958;2023-11-19T05:06:54;22.10;;;12.40;;
54599;SDS011;40500;51.084;16.958;2023-11-19T05:09:27;30.10;;;13.90;;
54599;SDS011;40500;51.084;16.958;2023-11-19T05:11:59;21.80;;;11.50;;
54599;SDS011;40500;51.084;16.958;2023-11-19T05:14:31;21.30;;;11.20;;
54599;SDS011;40500;51.084;16.958;2023-11-19T05:17:04;27.00;;;13.10;;
54599;SDS011;40500;51.084;16.958;2023-11-19T05:19:37;21.10;;;12.20;;
54599;SDS011;40500;51.084;16.958;2023-11-19T05:22:09;21.90;;;12.20;;
54599;SDS011;40500;51.084;16.958;2023-11-19T05:24:42;18.90;;;10.80;;
54599;SDS011;40500;51.084;16.958;2023-11-19T05:27:14;20.20;;;11.20;;
54599;SDS011;40500;51.084;16.958;2023-11-19T05:29:46;21.60;;;11.40;;
54599;SDS011;40500;51.084;16.958;2023-11-19T05:32:18;18.50;;;11.30;;
54599;SDS011;40500;51.084;16.958;2023-11-19T05:34:50;17.30;;;10.00;;
54599;SDS011;40500;51.084;16.958;2023-11-19T05:37:22;21.30;;;12.30;;
54599;SDS011;40500;51.084;16.958;2023-11-19T05:39:54;17.40;;;10.00;;
54599;SDS011;40500;51.084;16.958;2023-11-19T05:42:26;18.80;;;10.80;;
54599;SDS011;40500;51.084;16.958;2023-11-19T05:44:58;15.00;;;8.80;;
54599;SDS011;40500;51.084;16.958;2023-11-19T05:47:30;20.20;;;12.10;;
54599;SDS011;40500;51.084;16.958;2023-11-19T05:50:03;20.60;;;11.80;;
54599;SDS011;40500;51.084;16.958;2023-11-19T05:52:37;17.70;;;11.30;;
54599;SDS011;40500;51.084;16.958;2023-11-19T05:55:10;21.70;;;12.40;;
54599;SDS011;40500;51.084;16.958;2023-11-19T05:57:43;19.10;;;10.70;;
54599;SDS011;40500;51.084;16.958;2023-11-19T06:00:15;15.20;;;9.40;;
54599;SDS011;40500;51.084;16.958;2023-11-19T06:02:48;19.10;;;10.70;;
54599;SDS011;40500;51.084;16.958;2023-11-19T06:05:20;16.40;;;9.50;;
54599;SDS011;40500;51.084;16.958;2023-11-19T06:07:52;19.10;;;10.80;;
54599;SDS011;40500;51.084;16.958;2023-11-19T06:10:24;17.60;;;10.90;;
54599;SDS011;40500;51.084;16.958;2023-11-19T06:13:00;14.60;;;8.80;;
54599;SDS011;40500;51.084;16.958;2023-11-19T06:15:34;18.60;;;9.90;;
54599;SDS011;40500;51.084;16.958;2023-11-19T06:18:06;12.80;;;7.00;;
54599;SDS011;40500;51.084;16.958;2023-11-19T06:20:39;13.30;;;8.30;;
54599;SDS011;40500;51.084;16.958;2023-11-19T06:23:12;17.50;;;10.60;;
54599;SDS011;40500;51.084;16.958;2023-11-19T06:25:44;16.10;;;10.30;;
54599;SDS011;40500;51.084;16.958;2023-11-19T06:28:16;16.80;;;10.00;;
54599;SDS011;40500;51.084;16.958;2023-11-19T06:30:49;14.30;;;9.60;;
54599;SDS011;40500;51.084;16.958;2023-11-19T06:33:21;14.40;;;9.70;;
54599;SDS011;40500;51.084;16.958;2023-11-19T06:35:53;14.40;;;8.70;;
54599;SDS011;40500;51.084;16.958;2023-11-19T06:38:25;14.50;;;8.90;;
54599;SDS011;40500;51.084;16.958;2023-11-19T06:40:57;15.60;;;9.40;;
54599;SDS011;40500;51.084;16.958;2023-11-19T06:43:29;15.20;;;9.10;;
54599;SDS011;40500;51.084;16.958;2023-11-19T06:46:06;15.60;;;8.70;;
54599;SDS011;40500;51.084;16.958;2023-11-19T06:48:46;15.80;;;8.80;;
54599;SDS011;40500;51.084;16.958;2023-11-19T06:51:18;16.20;;;9.30;;
54599;SDS011;40500;51.084;16.958;2023-11-19T06:53:50;16.30;;;8.90;;
54599;SDS011;40500;51.084;16.958;2023-11-19T06:56:23;13.40;;;8.30;;
54599;SDS011;40500;51.084;16.958;2023-11-19T06:58:56;16.10;;;9.10;;
54599;SDS011;40500;51.084;16.958;2023-11-19T07:01:28;11.70;;;7.00;;
54599;SDS011;40500;51.084;16.958;2023-11-19T07:04:06;13.20;;;8.50;;
54599;SDS011;40500;51.084;16.958;2023-11-19T07:06:41;12.60;;;7.10;;
54599;SDS011;40500;51.084;16.958;2023-11-19T07:09:13;10.40;;;6.60;;
54599;SDS011;40500;51.084;16.958;2023-11-19T07:11:45;11.70;;;7.20;;
54599;SDS011;40500;51.084;16.958;2023-11-19T07:14:20;12.00;;;7.20;;
54599;SDS011;40500;51.084;16.958;2023-11-19T07:16:52;10.00;;;6.40;;
54599;SDS011;40500;51.084;16.958;2023-11-19T07:19:24;8.70;;;6.00;;
54599;SDS011;40500;51.084;16.958;2023-11-19T07:21:57;7.60;;;5.80;;
54599;SDS011;40500;51.084;16.958;2023-11-19T07:24:29;9.60;;;6.00;;
54599;SDS011;40500;51.084;16.958;2023-11-19T07:27:02;9.60;;;6.30;;
54599;SDS011;40500;51.084;16.958;2023-11-19T07:29:34;9.20;;;5.30;;
54599;SDS011;40500;51.084;16.958;2023-11-19T07:32:07;9.80;;;6.10;;
54599;SDS011;40500;51.084;16.958;2023-11-19T07:34:39;10.50;;;6.10;;
54599;SDS011;40500;51.084;16.958;2023-11-19T07:37:11;8.40;;;5.20;;
54599;SDS011;40500;51.084;16.958;2023-11-19T07:39:43;9.30;;;5.30;;
54599;SDS011;40500;51.084;16.958;2023-11-19T07:42:15;9.30;;;6.00;;
54599;SDS011;40500;51.084;16.958;2023-11-19T07:44:47;9.00;;;6.70;;
54599;SDS011;40500;51.084;16.958;2023-11-19T07:47:20;8.60;;;5.90;;
54599;SDS011;40500;51.084;16.958;2023-11-19T07:49:53;11.00;;;7.30;;
54599;SDS011;40500;51.084;16.958;2023-11-19T07:52:25;10.60;;;6.10;;
54599;SDS011;40500;51.084;16.958;2023-11-19T07:54:58;9.20;;;6.30;;
54599;SDS011;40500;51.084;16.958;2023-11-19T07:57:30;8.40;;;6.00;;
54599;SDS011;40500;51.084;16.958;2023-11-19T08:00:02;9.80;;;6.40;;
54599;SDS011;40500;51.084;16.958;2023-11-19T08:02:40;11.00;;;7.20;;
54599;SDS011;40500;51.084;16.958;2023-11-19T08:05:13;9.40;;;5.50;;
54599;SDS011;40500;51.084;16.958;2023-11-19T08:07:45;11.60;;;6.40;;
54599;SDS011;40500;51.084;16.958;2023-11-19T08:10:17;12.20;;;7.80;;
54599;SDS011;40500;51.084;16.958;2023-11-19T08:12:49;11.60;;;7.30;;
54599;SDS011;40500;51.084;16.958;2023-11-19T08:15:21;14.50;;;8.70;;
54599;SDS011;40500;51.084;16.958;2023-11-19T08:17:56;12.10;;;7.30;;
54599;SDS011;40500;51.084;16.958;2023-11-19T08:20:29;17.40;;;8.70;;
54599;SDS011;40500;51.084;16.958;2023-11-19T08:23:01;15.90;;;7.90;;
54599;SDS011;40500;51.084;16.958;2023-11-19T08:25:34;10.80;;;6.50;;
54599;SDS011;40500;51.084;16.958;2023-11-19T08:28:06;11.90;;;7.90;;
54599;SDS011;40500;51.084;16.958;2023-11-19T08:30:38;12.30;;;7.40;;
54599;SDS011;40500;51.084;16.958;2023-11-19T08:33:11;12.40;;;7.60;;
54599;SDS011;40500;51.084;16.958;2023-11-19T08:35:48;11.90;;;7.90;;
54599;SDS011;40500;51.084;16.958;2023-11-19T08:38:21;12.50;;;7.40;;
54599;SDS011;40500;51.084;16.958;2023-11-19T08:40:57;14.30;;;8.30;;
54599;SDS011;40500;51.084;16.958;2023-11-19T08:43:30;13.90;;;8.10;;
54599;SDS011;40500;51.084;16.958;2023-11-19T08:46:04;12.90;;;7.60;;
54599;SDS011;40500;51.084;16.958;2023-11-19T08:48:42;14.30;;;8.10;;
54599;SDS011;40500;51.084;16.958;2023-11-19T08:51:16;10.20;;;6.70;;
54599;SDS011;40500;51.084;16.958;2023-11-19T08:53:52;10.20;;;7.20;;
54599;SDS011;40500;51.084;16.958;2023-11-19T08:56:28;14.90;;;6.90;;
54599;SDS011;40500;51.084;16.958;2023-11-19T08:59:04;10.60;;;6.70;;
54599;SDS011;40500;51.084;16.958;2023-11-19T09:01:38;13.10;;;7.30;;
54599;SDS011;40500;51.084;16.958;2023-11-19T09:04:11;14.10;;;8.40;;
54599;SDS011;40500;51.084;16.958;2023-11-19T09:06:45;14.10;;;7.40;;
54599;SDS011;40500;51.084;16.958;2023-11-19T09:09:18;12.40;;;8.10;;
54599;SDS011;40500;51.084;16.958;2023-11-19T09:11:50;14.70;;;8.70;;
54599;SDS011;40500;51.084;16.958;2023-11-19T09:14:22;15.80;;;9.20;;
54599;SDS011;40500;51.084;16.958;2023-11-19T09:16:55;13.40;;;8.40;;
54599;SDS011;40500;51.084;16.958;2023-11-19T09:19:28;13.00;;;8.40;;
54599;SDS011;40500;51.084;16.958;2023-11-19T09:22:04;12.60;;;8.10;;
54599;SDS011;40500;51.084;16.958;2023-11-19T09:24:37;11.60;;;7.70;;
54599;SDS011;40500;51.084;16.958;2023-11-19T09:27:09;11.50;;;7.90;;
54599;SDS011;40500;51.084;16.958;2023-11-19T09:29:42;13.20;;;7.80;;
54599;SDS011;40500;51.084;16.958;2023-11-19T09:32:16;9.50;;;6.50;;
54599;SDS011;40500;51.084;16.958;2023-11-19T09:34:48;13.30;;;7.90;;
54599;SDS011;40500;51.084;16.958;2023-11-19T09:37:21;14.90;;;8.50;;
54599;SDS011;40500;51.084;16.958;2023-11-19T09:40:42;12.10;;;7.70;;
54599;SDS011;40500;51.084;16.958;2023-11-19T09:43:18;13.60;;;8.10;;
54599;SDS011;40500;51.084;16.958;2023-11-19T09:45:51;12.60;;;7.20;;
54599;SDS011;40500;51.084;16.958;2023-11-19T09:48:25;11.90;;;6.50;;
54599;SDS011;40500;51.084;16.958;2023-11-19T09:50:58;10.90;;;6.00;;
54599;SDS011;40500;51.084;16.958;2023-11-19T09:53:31;9.40;;;6.20;;
54599;SDS011;40500;51.084;16.958;2023-11-19T09:56:05;9.60;;;6.10;;
54599;SDS011;40500;51.084;16.958;2023-11-19T09:58:41;11.00;;;6.20;;
54599;SDS011;40500;51.084;16.958;2023-11-19T10:01:15;10.30;;;5.90;;
54599;SDS011;40500;51.084;16.958;2023-11-19T10:03:57;6.20;;;4.50;;
54599;SDS011;40500;51.084;16.958;2023-11-19T10:06:31;7.20;;;4.40;;
54599;SDS011;40500;51.084;16.958;2023-11-19T10:09:06;5.70;;;3.40;;
54599;SDS011;40500;51.084;16.958;2023-11-19T10:11:39;5.80;;;3.90;;
54599;SDS011;40500;51.084;16.958;2023-11-19T10:14:14;6.10;;;4.20;;
54599;SDS011;40500;51.084;16.958;2023-11-19T10:16:49;4.00;;;2.90;;
54599;SDS011;40500;51.084;16.958;2023-11-19T10:19:22;4.60;;;3.60;;
54599;SDS011;40500;51.084;16.958;2023-11-19T10:21:54;3.80;;;3.30;;
54599;SDS011;40500;51.084;16.958;2023-11-19T10:24:32;4.00;;;2.90;;
54599;SDS011;40500;51.084;16.958;2023-11-19T10:27:12;3.50;;;3.00;;
54599;SDS011;40500;51.084;16.958;2023-11-19T10:29:47;3.00;;;2.70;;
54599;SDS011;40500;51.084;16.958;2023-11-19T10:32:21;4.00;;;3.30;;
54599;SDS011;40500;51.084;16.958;2023-11-19T10:35:15;4.00;;;2.90;;
54599;SDS011;40500;51.084;16.958;2023-11-19T10:37:48;6.30;;;3.10;;
54599;SDS011;40500;51.084;16.958;2023-11-19T10:40:21;3.50;;;3.00;;
54599;SDS011;40500;51.084;16.958;2023-11-19T10:43:02;3.90;;;2.90;;
54599;SDS011;40500;51.084;16.958;2023-11-19T10:45:37;2.90;;;2.60;;
54599;SDS011;40500;51.084;16.958;2023-11-19T10:48:12;3.00;;;2.50;;
54599;SDS011;40500;51.084;16.958;2023-11-19T10:50:45;3.80;;;2.60;;
54599;SDS011;40500;51.084;16.958;2023-11-19T10:53:23;6.10;;;3.70;;
54599;SDS011;40500;51.084;16.958;2023-11-19T10:55:59;3.50;;;2.70;;
54599;SDS011;40500;51.084;16.958;2023-11-19T10:58:32;3.70;;;2.90;;
54599;SDS011;40500;51.084;16.958;2023-11-19T11:01:09;2.80;;;2.30;;
54599;SDS011;40500;51.084;16.958;2023-11-19T11:03:51;3.50;;;2.60;;
54599;SDS011;40500;51.084;16.958;2023-11-19T11:06:26;4.40;;;3.60;;
54599;SDS011;40500;51.084;16.958;2023-11-19T11:11:57;3.70;;;2.90;;
54599;SDS011;40500;51.084;16.958;2023-11-19T11:14:41;5.20;;;3.20;;
54599;SDS011;40500;51.084;16.958;2023-11-19T11:17:16;4.00;;;3.00;;
54599;SDS011;40500;51.084;16.958;2023-11-19T11:19:57;3.50;;;2.90;;
54599;SDS011;40500;51.084;16.958;2023-11-19T11:22:44;4.50;;;3.50;;
54599;SDS011;40500;51.084;16.958;2023-11-19T11:25:47;5.30;;;3.40;;
54599;SDS011;40500;51.084;16.958;2023-11-19T11:45:35;4.80;;;3.80;;
54599;SDS011;40500;51.084;16.958;2023-11-19T11:48:09;3.20;;;2.90;;
54599;SDS011;40500;51.084;16.958;2023-11-19T11:50:50;5.80;;;4.00;;
54599;SDS011;40500;51.084;16.958;2023-11-19T11:53:19;4.30;;;3.50;;
54599;SDS011;40500;51.084;16.958;2023-11-19T11:55:56;4.50;;;3.60;;
54599;SDS011;40500;51.084;16.958;2023-11-19T11:58:26;6.40;;;4.50;;
54599;SDS011;40500;51.084;16.958;2023-11-19T12:00:56;8.30;;;5.10;;
54599;SDS011;40500;51.084;16.958;2023-11-19T12:03:26;9.00;;;5.50;;
54599;SDS011;40500;51.084;16.958;2023-11-19T12:05:54;7.40;;;4.40;;
54599;SDS011;40500;51.084;16.958;2023-11-19T12:08:25;7.20;;;4.60;;
54599;SDS011;40500;51.084;16.958;2023-11-19T12:10:55;6.90;;;4.10;;
54599;SDS011;40500;51.084;16.958;2023-11-19T12:14:01;9.00;;;4.70;;
54599;SDS011;40500;51.084;16.958;2023-11-19T12:16:30;5.70;;;3.70;;
54599;SDS011;40500;51.084;16.958;2023-11-19T12:19:03;5.60;;;3.90;;
54599;SDS011;40500;51.084;16.958;2023-11-19T12:21:35;6.00;;;3.40;;
54599;SDS011;40500;51.084;16.958;2023-11-19T12:24:05;5.40;;;3.20;;
54599;SDS011;40500;51.084;16.958;2023-11-19T12:26:35;5.60;;;3.70;;
54599;SDS011;40500;51.084;16.958;2023-11-19T12:29:03;5.30;;;4.20;;
54599;SDS011;40500;51.084;16.958;2023-11-19T12:31:36;6.20;;;4.60;;
54599;SDS011;40500;51.084;16.958;2023-11-19T12:34:08;7.40;;;4.70;;
54599;SDS011;40500;51.084;16.958;2023-11-19T12:36:41;8.10;;;4.80;;
54599;SDS011;40500;51.084;16.958;2023-11-19T12:39:10;4.90;;;3.60;;
54599;SDS011;40500;51.084;16.958;2023-11-19T12:41:50;7.10;;;4.40;;
54599;SDS011;40500;51.084;16.958;2023-11-19T12:44:19;5.70;;;3.90;;
54599;SDS011;40500;51.084;16.958;2023-11-19T12:46:47;6.80;;;5.00;;
54599;SDS011;40500;51.084;16.958;2023-11-19T12:49:26;6.80;;;4.60;;
54599;SDS011;40500;51.084;16.958;2023-11-19T12:51:54;6.60;;;4.40;;
54599;SDS011;40500;51.084;16.958;2023-11-19T12:54:32;8.50;;;5.20;;
54599;SDS011;40500;51.084;16.958;2023-11-19T12:56:59;7.00;;;5.10;;
54599;SDS011;40500;51.084;16.958;2023-11-19T12:59:28;6.60;;;4.20;;
54599;SDS011;40500;51.084;16.958;2023-11-19T13:01:56;6.00;;;4.70;;
54599;SDS011;40500;51.084;16.958;2023-11-19T13:04:27;6.90;;;5.00;;
54599;SDS011;40500;51.084;16.958;2023-11-19T13:06:55;8.50;;;5.40;;
54599;SDS011;40500;51.084;16.958;2023-11-19T13:09:27;9.30;;;5.80;;
54599;SDS011;40500;51.084;16.958;2023-11-19T13:11:56;8.50;;;5.40;;
54599;SDS011;40500;51.084;16.958;2023-11-19T13:14:23;7.30;;;5.90;;
54599;SDS011;40500;51.084;16.958;2023-11-19T13:17:04;10.10;;;6.20;;
54599;SDS011;40500;51.084;16.958;2023-11-19T13:19:35;10.00;;;6.60;;
54599;SDS011;40500;51.084;16.958;2023-11-19T13:22:06;10.10;;;6.80;;
54599;SDS011;40500;51.084;16.958;2023-11-19T13:24:36;8.20;;;5.20;;
54599;SDS011;40500;51.084;16.958;2023-11-19T13:27:07;9.20;;;5.90;;
54599;SDS011;40500;51.084;16.958;2023-11-19T13:29:36;9.20;;;6.50;;
54599;SDS011;40500;51.084;16.958;2023-11-19T13:32:06;12.60;;;6.80;;
54599;SDS011;40500;51.084;16.958;2023-11-19T13:34:37;9.10;;;6.10;;
54599;SDS011;40500;51.084;16.958;2023-11-19T13:37:06;9.50;;;6.30;;
54599;SDS011;40500;51.084;16.958;2023-11-19T13:39:35;10.20;;;6.90;;
54599;SDS011;40500;51.084;16.958;2023-11-19T13:42:05;9.10;;;6.10;;
54599;SDS011;40500;51.084;16.958;2023-11-19T13:44:36;8.40;;;6.30;;
54599;SDS011;40500;51.084;16.958;2023-11-19T13:47:05;8.20;;;6.30;;
54599;SDS011;40500;51.084;16.958;2023-11-19T13:49:33;9.50;;;6.70;;
54599;SDS011;40500;51.084;16.958;2023-11-19T13:52:01;10.80;;;6.20;;
54599;SDS011;40500;51.084;16.958;2023-11-19T13:54:29;10.70;;;6.20;;
54599;SDS011;40500;51.084;16.958;2023-11-19T13:57:00;9.30;;;6.70;;
54599;SDS011;40500;51.084;16.958;2023-11-19T13:59:31;7.70;;;4.30;;
54599;SDS011;40500;51.084;16.958;2023-11-19T14:02:07;3.80;;;3.00;;
54599;SDS011;40500;51.084;16.958;2023-11-19T14:04:37;4.50;;;2.70;;
54599;SDS011;40500;51.084;16.958;2023-11-19T14:07:05;7.60;;;2.30;;
54599;SDS011;40500;51.084;16.958;2023-11-19T14:09:34;4.80;;;2.20;;
54599;SDS011;40500;51.084;16.958;2023-11-19T14:12:02;4.40;;;2.20;;
54599;SDS011;40500;51.084;16.958;2023-11-19T14:14:30;3.90;;;2.20;;
54599;SDS011;40500;51.084;16.958;2023-11-19T14:16:58;3.80;;;2.30;;
54599;SDS011;40500;51.084;16.958;2023-11-19T14:19:41;4.00;;;2.10;;
54599;SDS011;40500;51.084;16.958;2023-11-19T14:22:09;6.30;;;2.10;;
54599;SDS011;40500;51.084;16.958;2023-11-19T14:24:38;3.80;;;2.30;;
54599;SDS011;40500;51.084;16.958;2023-11-19T14:27:08;3.80;;;2.50;;
54599;SDS011;40500;51.084;16.958;2023-11-19T14:29:37;3.90;;;2.40;;
54599;SDS011;40500;51.084;16.958;2023-11-19T14:32:05;6.40;;;2.70;;
54599;SDS011;40500;51.084;16.958;2023-11-19T14:34:33;4.60;;;2.70;;
54599;SDS011;40500;51.084;16.958;2023-11-19T14:37:02;6.70;;;3.00;;
54599;SDS011;40500;51.084;16.958;2023-11-19T14:39:31;7.20;;;2.80;;
54599;SDS011;40500;51.084;16.958;2023-11-19T14:42:00;4.20;;;2.80;;
54599;SDS011;40500;51.084;16.958;2023-11-19T14:44:32;7.60;;;2.60;;
54599;SDS011;40500;51.084;16.958;2023-11-19T14:47:01;4.70;;;2.80;;
54599;SDS011;40500;51.084;16.958;2023-11-19T14:49:32;5.60;;;2.50;;
54599;SDS011;40500;51.084;16.958;2023-11-19T14:52:04;6.80;;;2.90;;
54599;SDS011;40500;51.084;16.958;2023-11-19T14:54:35;6.70;;;2.80;;
54599;SDS011;40500;51.084;16.958;2023-11-19T14:57:03;4.40;;;2.80;;
54599;SDS011;40500;51.084;16.958;2023-11-19T14:59:31;6.30;;;2.80;;
54599;SDS011;40500;51.084;16.958;2023-11-19T15:02:00;6.70;;;2.80;;
54599;SDS011;40500;51.084;16.958;2023-11-19T15:04:30;4.60;;;2.60;;
54599;SDS011;40500;51.084;16.958;2023-11-19T15:06:59;6.50;;;3.10;;
54599;SDS011;40500;51.084;16.958;2023-11-19T15:09:29;5.90;;;3.20;;
54599;SDS011;40500;51.084;16.958;2023-11-19T15:11:57;6.30;;;3.00;;
54599;SDS011;40500;51.084;16.958;2023-11-19T15:14:26;8.60;;;3.60;;